Time;durP1;ratioP1;P1;durP2;ratioP2;P2;SDS_P1;SDS_P2;PMS_P1;PMS_P2;Temp;Humidity;BMP_temperature;BMP_pressure;BME280_temperature;BME280_humidity;BME280_pressure;Samples;Min_cycle;Max_cycle;Signal;HPM_P1;HPM_P2
2022/02/21 00:00:07;;;;;;;17.13;12.45;;;;;;;8.14;100.00;100246.25;5011155;28;20034;-67
2022/02/21 00:02:33;;;;;;;19.25;13.32;;;;;;;8.42;100.00;100279.66;5010549;28;20151;-67
2022/02/21 00:04:58;;;;;;;19.08;12.90;;;;;;;8.17;100.00;100275.78;5009425;28;20109;-67
2022/02/21 00:07:24;;;;;;;19.02;14.07;;;;;;;7.78;100.00;100222.28;5010679;28;20034;-66
2022/02/21 00:09:49;;;;;;;23.20;16.88;;;;;;;7.31;100.00;100241.41;5010679;28;20034;-67
2022/02/21 00:12:14;;;;;;;22.40;15.32;;;;;;;7.22;100.00;100260.03;5010840;28;20133;-67
2022/02/21 00:14:40;;;;;;;22.40;15.48;;;;;;;7.02;100.00;100234.13;5010290;28;20103;-67
2022/02/21 00:17:06;;;;;;;21.55;15.57;;;;;;;7.17;100.00;100261.75;5010395;28;20496;-67
2022/02/21 00:19:31;;;;;;;22.95;16.60;;;;;;;6.89;100.00;100263.69;5010434;28;20038;-67
2022/02/21 00:21:56;;;;;;;25.23;17.58;;;;;;;6.23;100.00;100238.13;5010663;28;20033;-67
2022/02/21 00:24:22;;;;;;;21.58;16.27;;;;;;;6.13;100.00;100247.44;5011216;28;20033;-67
2022/02/21 00:26:47;;;;;;;26.05;17.20;;;;;;;5.91;100.00;100261.00;5011124;28;20457;-68
2022/02/21 00:29:13;;;;;;;21.55;16.75;;;;;;;6.22;100.00;100236.47;5010488;28;20041;-67
2022/02/21 00:31:38;;;;;;;24.42;17.25;;;;;;;6.23;100.00;100264.19;5010310;28;20038;-66
2022/02/21 00:34:04;;;;;;;24.63;17.33;;;;;;;5.34;100.00;100235.97;5010298;28;20038;-67
2022/02/21 00:36:29;;;;;;;25.20;17.17;;;;;;;5.28;100.00;100278.00;5010597;28;20423;-68
2022/02/21 00:38:55;;;;;;;29.25;19.05;;;;;;;5.69;100.00;100234.16;5009132;28;20025;-67
2022/02/21 00:41:20;;;;;;;27.50;19.65;;;;;;;5.63;100.00;100226.63;5009347;28;20026;-67
2022/02/21 00:43:45;;;;;;;28.20;19.23;;;;;;;5.80;100.00;100227.41;5009467;28;20480;-67
2022/02/21 00:46:11;;;;;;;29.63;19.83;;;;;;;5.99;100.00;100239.09;5008785;28;20026;-68
2022/02/21 00:48:36;;;;;;;28.95;20.40;;;;;;;6.35;100.00;100248.97;5010289;28;20022;-68
2022/02/21 00:51:02;;;;;;;28.20;19.70;;;;;;;5.79;100.00;100201.34;5009189;28;20018;-68
2022/02/21 00:53:27;;;;;;;27.40;19.95;;;;;;;6.21;100.00;100239.81;4998024;28;20034;-68
2022/02/21 00:55:53;;;;;;;31.48;21.65;;;;;;;6.11;100.00;100226.41;4989530;28;20031;-68
2022/02/21 00:58:18;;;;;;;31.52;20.85;;;;;;;5.49;100.00;100204.00;4991064;28;20485;-66
2022/02/21 01:03:19;;;;;;;30.02;20.65;;;;;;;5.87;100.00;100219.81;4128459;23;10000714;-63
2022/02/21 01:05:44;;;;;;;29.80;19.13;;;;;;;5.99;100.00;100218.91;4997598;28;20050;-63
2022/02/21 01:08:10;;;;;;;28.00;20.13;;;;;;;5.83;100.00;100176.94;4990517;28;20034;-62
2022/02/21 01:10:39;;;;;;;27.55;20.45;;;;;;;5.61;100.00;100147.63;4989296;28;20030;-62
2022/02/21 01:13:04;;;;;;;27.27;19.42;;;;;;;5.36;100.00;100108.28;4990343;28;20093;-62
2022/02/21 01:15:30;;;;;;;28.15;20.95;;;;;;;5.72;100.00;100216.50;4990770;28;20022;-62
2022/02/21 01:17:56;;;;;;;28.30;20.67;;;;;;;5.46;100.00;100167.88;4990772;28;20409;-62
2022/02/21 01:20:21;;;;;;;27.98;21.70;;;;;;;5.61;100.00;100229.16;5008323;28;20038;-62
2022/02/21 01:22:47;;;;;;;29.77;20.52;;;;;;;5.40;100.00;100166.22;5009812;28;20044;-61
2022/02/21 01:25:12;;;;;;;29.45;21.73;;;;;;;5.78;100.00;100168.56;5006853;28;20062;-64
2022/02/21 01:27:38;;;;;;;31.38;21.17;;;;;;;5.79;100.00;100206.38;4993249;28;20101;-62
2022/02/21 01:30:06;;;;;;;27.17;20.85;;;;;;;6.34;100.00;100227.09;4992705;28;20022;-62
2022/02/21 01:32:31;;;;;;;29.48;20.90;;;;;;;5.95;100.00;100162.59;4994177;28;20030;-62
2022/02/21 01:34:57;;;;;;;29.42;21.50;;;;;;;5.86;100.00;100165.16;5003929;28;20445;-62
2022/02/21 01:37:22;;;;;;;31.67;21.13;;;;;;;6.39;100.00;100234.66;5013800;28;20026;-62
2022/02/21 01:39:48;;;;;;;30.48;20.02;;;;;;;5.62;100.00;100134.19;5012236;28;20088;-62
2022/02/21 01:42:13;;;;;;;26.67;19.63;;;;;;;6.32;100.00;100175.78;5011566;28;20030;-62
2022/02/21 01:44:45;;;;;;;28.75;20.63;;;;;;;6.51;100.00;100235.41;5012216;28;20412;-62
2022/02/21 01:47:12;;;;;;;;;;;;;;;6.72;100.00;100229.31;5013917;28;20104;-62
2022/02/21 01:49:37;;;;;;;25.52;19.40;;;;;;;7.07;100.00;100223.97;5012029;28;19913;-62
2022/02/21 01:52:05;;;;;;;26.20;20.65;;;;;;;7.03;100.00;100226.50;5013369;28;20056;-63
2022/02/21 01:54:31;;;;;;;28.58;20.52;;;;;;;6.37;100.00;100181.66;5012958;28;20029;-61
2022/02/21 01:56:57;;;;;;;28.45;20.10;;;;;;;6.22;100.00;100183.44;5013084;28;20487;-62
2022/02/21 01:59:26;;;;;;;28.13;20.00;;;;;;;7.11;100.00;100223.91;5013023;28;20045;-62
2022/02/21 02:01:53;;;;;;;30.00;19.98;;;;;;;6.93;100.00;100219.06;5006147;28;20067;-63
2022/02/21 02:04:19;;;;;;;27.25;20.40;;;;;;;6.85;100.00;100166.03;4993550;28;20038;-61
2022/02/21 02:06:47;;;;;;;27.80;20.27;;;;;;;6.81;100.00;100211.59;4993332;28;20117;-62
2022/02/21 02:09:12;;;;;;;33.08;21.52;;;;;;;6.58;100.00;100208.41;5005438;28;20160;-62
2022/02/21 02:11:38;;;;;;;28.90;20.50;;;;;;;6.87;100.00;100168.56;5011457;28;20153;-62
2022/02/21 02:14:05;;;;;;;30.38;21.13;;;;;;;6.76;100.00;100176.25;5012504;28;20033;-62
2022/02/21 02:16:30;;;;;;;29.17;19.73;;;;;;;6.81;100.00;100161.06;5013001;28;20030;-62
2022/02/21 02:18:56;;;;;;;31.60;22.02;;;;;;;7.17;100.00;100212.91;5011299;28;20040;-62
2022/02/21 02:21:26;;;;;;;30.23;21.30;;;;;;;7.09;100.00;100207.91;5012385;28;20112;-62
2022/02/21 02:23:53;;;;;;;31.35;21.73;;;;;;;7.08;100.00;100205.41;5012227;28;20037;-63
2022/02/21 02:26:20;;;;;;;30.92;22.45;;;;;;;6.41;100.00;100163.09;5012706;28;20029;-62
2022/02/21 02:28:54;;;;;;;32.25;22.50;;;;;;;6.89;100.00;100182.03;5006711;28;20034;-62
2022/02/21 02:31:21;;;;;;;34.35;23.70;;;;;;;7.18;100.00;100201.94;5012471;28;20113;-62
2022/02/21 02:33:46;;;;;;;31.27;21.83;;;;;;;7.19;100.00;100198.56;5012104;28;20623;-62
2022/02/21 02:36:12;;;;;;;35.45;22.80;;;;;;;6.94;100.00;100215.66;5012224;28;20030;-62
2022/02/21 02:38:39;;;;;;;34.20;21.52;;;;;;;6.72;100.00;100151.03;5011974;28;20030;-62
2022/02/21 02:41:06;;;;;;;28.42;21.38;;;;;;;6.83;100.00;100151.78;5012096;28;20471;-62
2022/02/21 02:43:31;;;;;;;27.83;21.02;;;;;;;7.20;100.00;100207.81;5012095;28;20101;-62
2022/02/21 02:45:56;;;;;;;28.67;21.35;;;;;;;6.58;100.00;100210.91;5012213;28;20034;-62
2022/02/21 02:48:22;;;;;;;29.67;21.80;;;;;;;6.44;100.00;100160.53;5011872;28;20026;-63
2022/02/21 02:50:47;;;;;;;31.58;21.80;;;;;;;6.63;100.00;100167.13;5012356;28;20407;-62
2022/02/21 02:53:13;;;;;;;29.90;21.77;;;;;;;6.55;100.00;100125.09;5011706;28;20426;-62
2022/02/21 02:55:38;;;;;;;34.72;22.27;;;;;;;6.57;100.00;100220.22;5011927;28;20419;-62
2022/02/21 02:58:03;;;;;;;27.30;20.85;;;;;;;6.43;100.00;100133.63;5011966;28;20152;-62
2022/02/21 03:00:29;;;;;;;28.45;21.42;;;;;;;7.16;100.00;100216.28;5011712;28;20129;-62
2022/02/21 03:02:55;;;;;;;30.52;21.92;;;;;;;6.84;100.00;100203.97;5011482;28;20050;-62
2022/02/21 03:05:20;;;;;;;32.10;22.98;;;;;;;6.55;100.00;100178.97;5011728;28;20026;-62
2022/02/21 03:07:46;;;;;;;40.60;26.50;;;;;;;6.91;100.00;100201.34;5011426;28;20033;-62
2022/02/21 03:10:12;;;;;;;45.05;30.10;;;;;;;6.63;100.00;100199.94;5011609;28;20030;-62
2022/02/21 03:12:37;;;;;;;39.33;26.27;;;;;;;6.98;100.00;100199.63;5011763;28;20029;-62
2022/02/21 03:15:03;;;;;;;38.65;26.67;;;;;;;6.91;100.00;100158.41;5011497;28;20022;-62
2022/02/21 03:17:28;;;;;;;38.90;26.92;;;;;;;6.87;100.00;100207.28;5011469;28;20045;-62
2022/02/21 03:19:54;;;;;;;40.80;26.88;;;;;;;6.69;100.00;100210.00;5010162;28;20116;-62
2022/02/21 03:22:19;;;;;;;35.00;24.27;;;;;;;6.97;100.00;100203.81;5011093;28;20069;-62
2022/02/21 03:24:44;;;;;;;37.85;26.25;;;;;;;7.07;100.00;100209.66;5011321;28;20025;-62
2022/02/21 03:27:10;;;;;;;39.78;27.02;;;;;;;6.90;100.00;100193.78;5011236;28;20117;-62
2022/02/21 03:29:35;;;;;;;36.03;24.85;;;;;;;6.78;100.00;100158.53;5011241;28;20061;-62
2022/02/21 03:32:01;;;;;;;38.05;25.77;;;;;;;6.77;100.00;100155.16;5011186;28;20025;-62
2022/02/21 03:34:26;;;;;;;37.90;25.60;;;;;;;7.06;100.00;100186.88;5011215;28;20041;-62
2022/02/21 03:36:52;;;;;;;37.17;25.75;;;;;;;6.83;100.00;100142.47;5010831;28;20116;-62
2022/02/21 03:39:17;;;;;;;34.60;24.63;;;;;;;7.07;100.00;100188.59;5011348;28;20407;-61
2022/02/21 03:41:43;;;;;;;36.35;25.25;;;;;;;7.05;100.00;100186.06;5009716;28;20033;-62
2022/02/21 03:44:08;;;;;;;41.08;28.67;;;;;;;6.94;100.00;100180.28;5011120;28;20022;-62
2022/02/21 03:46:37;;;;;;;38.00;25.92;;;;;;;6.84;100.00;100182.06;4996350;28;20060;-62
2022/02/21 03:49:05;;;;;;;62.50;43.30;;;;;;;6.44;100.00;100165.59;4990981;28;20030;-61
2022/02/21 03:51:32;;;;;;;35.78;27.17;;;;;;;6.23;100.00;100182.59;4989634;28;20030;-61
2022/02/21 03:53:57;;;;;;;38.42;28.67;;;;;;;5.53;100.00;100119.94;4991413;28;20483;-62
2022/02/21 03:56:22;;;;;;;35.13;23.63;;;;;;;5.65;100.00;100136.69;4991501;28;20121;-63
2022/02/21 03:58:48;;;;;;;33.00;23.92;;;;;;;5.86;100.00;100108.84;4991499;28;20092;-62
2022/02/21 04:01:14;;;;;;;32.20;23.00;;;;;;;5.85;100.00;100166.03;4989898;28;20037;-62
2022/02/21 04:03:39;;;;;;;33.00;23.88;;;;;;;5.90;100.00;100158.44;4989698;28;20062;-62
2022/02/21 04:06:05;;;;;;;34.85;25.33;;;;;;;5.57;100.00;100113.19;4989391;28;20037;-62
2022/02/21 04:08:30;;;;;;;34.20;25.67;;;;;;;5.88;100.00;100100.41;4991243;28;20023;-63
2022/02/21 04:10:56;;;;;;;37.45;25.23;;;;;;;6.18;100.00;100151.50;4991155;28;20592;-61
2022/02/21 04:13:21;;;;;;;35.72;25.45;;;;;;;6.11;100.00;100164.19;4989703;28;20030;-62
2022/02/21 04:15:46;;;;;;;32.90;24.50;;;;;;;6.06;100.00;100158.31;4991176;28;20030;-61
2022/02/21 04:18:12;;;;;;;35.92;27.83;;;;;;;6.12;100.00;100165.00;4990984;28;20037;-62
2022/02/21 04:20:37;;;;;;;38.85;25.83;;;;;;;5.84;100.00;100155.94;4990633;28;20030;-61
2022/02/21 04:23:03;;;;;;;35.67;25.70;;;;;;;5.82;100.00;100143.28;4991101;28;20121;-63
2022/02/21 04:25:29;;;;;;;35.63;25.25;;;;;;;5.43;100.00;100097.34;4991180;28;20022;-61
2022/02/21 04:27:55;;;;;;;31.42;24.40;;;;;;;5.78;100.00;100164.38;4989617;28;20411;-62
2022/02/21 04:30:22;;;;;;;33.50;24.30;;;;;;;6.15;100.00;100170.03;4991009;28;20062;-61
2022/02/21 04:32:49;;;;;;;37.35;26.20;;;;;;;6.21;100.00;100138.84;4991080;28;20026;-61
2022/02/21 04:35:16;;;;;;;31.70;24.42;;;;;;;5.77;100.00;100103.81;4990448;28;20097;-62
2022/02/21 04:37:42;;;;;;;34.50;25.25;;;;;;;5.78;100.00;100163.53;4991015;28;20501;-61
2022/02/21 04:40:10;;;;;;;34.58;25.42;;;;;;;5.87;100.00;100169.38;4990880;28;20058;-60
2022/02/21 04:42:36;;;;;;;34.08;24.05;;;;;;;5.67;100.00;100115.66;4990577;28;20030;-61
2022/02/21 04:45:03;;;;;;;37.97;25.30;;;;;;;6.37;100.00;100173.22;4990857;28;20145;-61
2022/02/21 04:47:29;;;;;;;31.75;23.40;;;;;;;6.14;100.00;100166.66;4989056;28;20416;-61
2022/02/21 04:49:54;;;;;;;42.25;26.75;;;;;;;5.89;100.00;100134.88;4990223;28;20046;-61
2022/02/21 04:52:20;;;;;;;34.22;24.92;;;;;;;6.70;100.00;100201.56;4989583;28;20107;-61
2022/02/21 04:54:45;;;;;;;34.78;24.17;;;;;;;6.21;100.00;100194.38;4990828;28;20034;-61
2022/02/21 04:57:11;;;;;;;41.40;28.83;;;;;;;6.08;100.00;100188.59;4990116;28;20034;-63
2022/02/21 04:59:37;;;;;;;41.60;29.70;;;;;;;5.80;100.00;100134.09;4990649;28;20026;-64
2022/02/21 05:02:03;;;;;;;39.83;28.02;;;;;;;5.88;100.00;100085.28;4992868;28;20042;-64
2022/02/21 05:04:29;;;;;;;45.28;28.90;;;;;;;5.99;100.00;100181.06;4993896;28;20031;-62
2022/02/21 05:06:54;;;;;;;36.15;27.23;;;;;;;6.30;100.00;100169.09;4993040;28;20465;-64
2022/02/21 05:09:20;;;;;;;39.55;27.40;;;;;;;6.17;100.00;100160.75;4994622;28;20236;-61
2022/02/21 05:11:45;;;;;;;38.65;26.95;;;;;;;5.75;100.00;100123.16;4992573;28;20472;-60
2022/02/21 05:14:11;;;;;;;37.22;26.48;;;;;;;5.77;100.00;100122.31;4994248;28;20057;-63
2022/02/21 05:16:36;;;;;;;36.20;25.75;;;;;;;6.39;100.00;100169.00;4993920;28;20031;-61
2022/02/21 05:19:02;;;;;;;38.33;27.58;;;;;;;5.74;100.00;100117.31;4993587;28;20030;-63
2022/02/21 05:21:29;;;;;;;45.03;32.13;;;;;;;5.75;100.00;100148.38;4993985;28;20036;-63
2022/02/21 05:23:55;;;;;;;43.63;28.58;;;;;;;5.70;100.00;100110.63;4993591;28;20469;-63
2022/02/21 05:26:21;;;;;;;37.47;29.30;;;;;;;5.47;100.00;100121.69;4993957;28;20121;-61
2022/02/21 05:28:46;;;;;;;40.40;29.33;;;;;;;5.55;100.00;100125.81;4993968;28;20504;-62
2022/02/21 05:31:11;;;;;;;37.03;27.35;;;;;;;5.74;100.00;100124.03;4993750;28;20165;-63
2022/02/21 05:33:37;;;;;;;37.67;26.60;;;;;;;5.70;100.00;100074.47;4993242;28;20026;-64
2022/02/21 05:36:03;;;;;;;36.33;25.77;;;;;;;5.95;100.00;100139.06;4993639;28;20026;-64
2022/02/21 05:38:28;;;;;;;37.70;26.60;;;;;;;6.21;100.00;100187.66;4993153;28;20034;-64
2022/02/21 05:40:53;;;;;;;35.13;25.88;;;;;;;6.27;100.00;100177.53;4993486;28;20503;-64
2022/02/21 05:43:19;;;;;;;44.42;29.33;;;;;;;5.72;100.00;100113.13;4992092;28;20040;-64
2022/02/21 05:45:44;;;;;;;44.50;28.05;;;;;;;5.94;100.00;100176.03;4993438;28;20035;-63
2022/02/21 05:48:10;;;;;;;36.80;20.77;;;;;;;8.95;100.00;100104.75;4994784;28;20030;-63
2022/02/21 05:50:35;;;;;;;41.33;27.20;;;;;;;5.72;100.00;100131.63;4996583;28;20038;-63
2022/02/21 05:53:01;;;;;;;39.30;27.90;;;;;;;5.69;100.00;100118.16;4990833;28;20074;-64
2022/02/21 05:55:26;;;;;;;39.13;29.20;;;;;;;6.33;100.00;100176.63;4992464;28;20030;-64
2022/02/21 05:57:58;;;;;;;35.17;27.95;;;;;;;6.24;100.00;100164.91;4993230;28;20614;-64
2022/02/21 06:00:25;;;;;;;41.50;28.13;;;;;;;5.77;100.00;100122.31;4991809;28;20420;-65
2022/02/21 06:02:50;;;;;;;39.83;28.42;;;;;;;6.26;100.00;100185.09;4992514;28;20057;-64
2022/02/21 06:05:16;;;;;;;44.15;29.98;;;;;;;5.82;100.00;100089.50;4992906;28;20022;-63
2022/02/21 06:07:41;;;;;;;48.75;28.23;;;;;;;6.65;100.00;100174.69;4991493;28;20030;-61
2022/02/21 06:10:07;;;;;;;38.45;28.50;;;;;;;6.28;100.00;100168.25;4990956;28;20475;-64
2022/02/21 06:12:32;;;;;;;38.13;28.75;;;;;;;6.29;100.00;100127.00;4992105;28;20412;-64
2022/02/21 06:14:59;;;;;;;41.38;31.02;;;;;;;6.11;100.00;100125.47;4992397;28;20367;-63
2022/02/21 06:17:24;;;;;;;43.95;32.05;;;;;;;6.47;100.00;100119.28;4992185;28;20034;-65
2022/02/21 06:19:50;;;;;;;47.95;33.78;;;;;;;6.19;100.00;100097.66;4992511;28;20467;-64
2022/02/21 06:22:17;;;;;;;50.03;35.00;;;;;;;6.42;100.00;100099.13;4992705;28;20035;-63
2022/02/21 06:24:43;;;;;;;49.80;36.53;;;;;;;6.46;100.00;100123.50;4992763;28;20165;-61
2022/02/21 06:27:08;;;;;;;57.25;37.50;;;;;;;6.63;100.00;100110.72;4993108;28;20061;-64
2022/02/21 06:29:34;;;;;;;94.40;56.63;;;;;;;6.63;100.00;100134.28;4992744;28;20126;-62
2022/02/21 06:31:59;;;;;;;100.57;60.03;;;;;;;6.23;100.00;100082.47;4992290;28;20030;-61
2022/02/21 06:34:25;;;;;;;94.20;56.15;;;;;;;6.39;100.00;100110.94;4993086;28;20037;-64
2022/02/21 06:36:50;;;;;;;91.13;52.40;;;;;;;6.61;100.00;100114.94;4992688;28;20551;-64
2022/02/21 06:39:15;;;;;;;69.75;44.55;;;;;;;6.15;100.00;100021.13;4992304;28;20038;-64
2022/02/21 06:41:41;;;;;;;65.50;43.22;;;;;;;6.28;100.00;100116.06;4992407;28;20038;-62
2022/02/21 06:44:06;;;;;;;49.97;37.13;;;;;;;6.71;100.00;100124.94;4992600;28;20172;-64
2022/02/21 06:46:32;;;;;;;52.58;36.50;;;;;;;6.85;100.00;100128.13;4991839;28;20488;-62
2022/02/21 06:48:57;;;;;;;46.05;35.45;;;;;;;6.39;100.00;100119.34;4992015;28;20124;-62
2022/02/21 06:51:23;;;;;;;57.83;40.67;;;;;;;6.50;100.00;100086.41;4980757;28;20030;-64
2022/02/21 06:53:48;;;;;;;65.72;47.95;;;;;;;6.45;100.00;100129.41;4972812;28;20022;-64
2022/02/21 06:56:14;;;;;;;63.80;43.20;;;;;;;6.60;100.00;100128.41;4987849;28;20402;-64
2022/02/21 06:58:39;;;;;;;75.75;47.15;;;;;;;6.50;100.00;100117.56;4972791;28;20042;-64
2022/02/21 07:01:05;;;;;;;72.53;47.63;;;;;;;6.86;100.00;100079.28;4972631;28;20542;-65
2022/02/21 07:03:30;;;;;;;62.35;38.05;;;;;;;6.62;100.00;100074.50;4973163;28;20050;-62
2022/02/21 07:05:56;;;;;;;65.60;40.67;;;;;;;7.33;100.00;100119.16;4992382;28;20033;-62
2022/02/21 07:08:21;;;;;;;85.30;47.13;;;;;;;7.58;100.00;100072.47;4991892;28;20033;-62
2022/02/21 07:10:47;;;;;;;80.35;45.83;;;;;;;7.52;100.00;100117.22;4992006;28;20408;-63
2022/02/21 07:13:12;;;;;;;77.30;41.15;;;;;;;7.63;100.00;100110.31;4991925;28;20121;-65
2022/02/21 07:15:38;;;;;;;67.47;36.60;;;;;;;7.17;100.00;100068.81;4990341;28;20162;-64
2022/02/21 07:18:03;;;;;;;52.38;33.50;;;;;;;7.81;100.00;100120.19;4991836;28;20089;-64
2022/02/21 07:20:29;;;;;;;42.10;30.33;;;;;;;8.51;100.00;100085.31;5007015;28;20055;-65
2022/02/21 07:22:54;;;;;;;45.53;29.33;;;;;;;8.52;100.00;100069.22;5006065;28;20034;-64
2022/02/21 07:25:20;;;;;;;41.55;30.77;;;;;;;9.22;100.00;100105.88;4990433;28;20022;-64
2022/02/21 07:27:48;;;;;;;41.92;28.75;;;;;;;9.70;100.00;100082.00;4991770;28;20452;-64
2022/02/21 07:30:17;;;;;;;38.67;26.85;;;;;;;9.87;100.00;100101.91;4990130;28;20475;-64
2022/02/21 07:32:43;;;;;;;39.38;25.05;;;;;;;10.24;100.00;100079.91;4991679;28;20431;-64
2022/02/21 07:35:09;;;;;;;34.88;23.88;;;;;;;11.08;100.00;100079.28;4991729;28;20026;-63
2022/02/21 07:37:35;;;;;;;28.38;21.10;;;;;;;10.31;100.00;100030.56;4991500;28;20508;-64
2022/02/21 07:40:01;;;;;;;31.42;20.02;;;;;;;11.09;100.00;100091.16;4991610;28;20030;-64
2022/02/21 07:42:26;;;;;;;28.92;20.00;;;;;;;11.08;100.00;100038.59;4991538;28;20034;-63
2022/02/21 07:44:52;;;;;;;24.33;18.65;;;;;;;11.04;100.00;100047.19;4991878;28;20161;-63
2022/02/21 07:47:19;;;;;;;29.13;18.88;;;;;;;11.71;100.00;100018.00;4991539;28;20081;-63
2022/02/21 07:49:44;;;;;;;24.20;16.88;;;;;;;11.33;100.00;100017.47;4991367;28;20030;-63
2022/02/21 07:52:10;;;;;;;24.55;18.27;;;;;;;12.12;100.00;100078.66;4991458;28;20033;-63
2022/02/21 07:54:35;;;;;;;20.38;16.90;;;;;;;12.32;100.00;100072.91;4991314;28;20034;-63
2022/02/21 07:57:01;;;;;;;20.05;14.77;;;;;;;12.22;100.00;99987.44;4990005;28;20034;-63
2022/02/21 07:59:27;;;;;;;23.17;17.73;;;;;;;12.61;100.00;99997.06;4991209;28;20069;-63
2022/02/21 08:01:53;;;;;;;19.45;14.60;;;;;;;12.23;100.00;100012.88;4989719;28;20410;-63
2022/02/21 08:04:19;;;;;;;23.83;15.68;;;;;;;12.88;100.00;100044.53;4991311;28;20022;-64
2022/02/21 08:06:46;;;;;;;20.55;14.75;;;;;;;12.53;100.00;99980.38;4991292;28;20034;-63
2022/02/21 08:09:12;;;;;;;18.40;14.15;;;;;;;12.78;100.00;99992.16;4991380;28;20045;-64
2022/02/21 08:11:38;;;;;;;19.08;14.45;;;;;;;13.19;100.00;99992.38;4990917;28;20416;-63
2022/02/21 08:14:04;;;;;;;20.85;14.50;;;;;;;13.25;100.00;100033.81;4990868;28;20030;-65
2022/02/21 08:16:29;;;;;;;18.67;14.52;;;;;;;12.72;100.00;100004.31;4989703;28;20042;-63
2022/02/21 08:18:55;;;;;;;19.55;13.85;;;;;;;12.50;100.00;99930.31;4989839;28;20026;-65
2022/02/21 08:21:21;;;;;;;22.67;14.55;;;;;;;13.45;100.00;100012.63;4990906;28;20420;-63
2022/02/21 08:23:46;;;;;;;25.08;16.08;;;;;;;13.43;100.00;99925.84;4991070;28;20097;-63
2022/02/21 08:26:12;;;;;;;22.15;14.70;;;;;;;13.38;100.00;99978.00;4990911;28;20068;-63
2022/02/21 08:28:37;;;;;;;18.30;14.50;;;;;;;13.39;100.00;99954.94;5005862;28;20031;-63
2022/02/21 08:31:03;;;;;;;19.08;14.38;;;;;;;13.01;100.00;99971.72;4990820;28;20030;-63
2022/02/21 08:33:28;;;;;;;19.13;14.30;;;;;;;12.90;100.00;99993.44;4991120;28;20022;-63
2022/02/21 08:35:54;;;;;;;19.83;14.18;;;;;;;13.35;100.00;100017.25;4993963;28;20492;-63
2022/02/21 08:38:19;;;;;;;22.10;14.82;;;;;;;13.73;100.00;99987.63;4994908;28;20031;-63
2022/02/21 08:40:45;;;;;;;21.60;13.68;;;;;;;13.78;100.00;99999.34;4994692;28;20019;-63
2022/02/21 08:43:10;;;;;;;20.95;14.77;;;;;;;13.49;100.00;100015.00;4994632;28;20039;-63
2022/02/21 08:45:35;;;;;;;21.50;16.05;;;;;;;13.82;100.00;99993.22;4993278;28;20118;-64
2022/02/21 08:48:01;;;;;;;26.30;16.58;;;;;;;13.14;100.00;100004.47;4993326;28;20607;-65
2022/02/21 08:50:26;;;;;;;22.40;15.05;;;;;;;13.36;100.00;99949.13;4994765;28;20552;-63
2022/02/21 08:52:52;;;;;;;25.02;16.08;;;;;;;13.96;100.00;99996.94;4994723;28;20053;-63
2022/02/21 08:55:18;;;;;;;21.15;14.25;;;;;;;13.07;100.00;99978.38;4994975;28;20491;-63
2022/02/21 08:57:45;;;;;;;20.55;14.07;;;;;;;13.84;100.00;99970.97;4994378;28;20507;-65
2022/02/21 09:00:12;;;;;;;24.02;14.52;;;;;;;14.25;100.00;99979.47;4994221;28;20030;-63
2022/02/21 09:02:38;;;;;;;22.70;14.52;;;;;;;14.35;98.81;99974.81;4994223;28;20050;-63
2022/02/21 09:05:04;;;;;;;20.10;14.40;;;;;;;13.24;100.00;99981.09;4994575;28;20444;-64
2022/02/21 09:07:30;;;;;;;26.73;16.15;;;;;;;13.91;97.67;99918.72;4994199;28;20489;-64
2022/02/21 09:09:55;;;;;;;43.67;21.50;;;;;;;13.79;97.01;99924.34;4992912;28;20034;-63
2022/02/21 09:12:21;;;;;;;34.63;18.90;;;;;;;13.20;100.00;99908.06;4992903;28;20548;-63
2022/02/21 09:14:47;;;;;;;29.58;19.17;;;;;;;13.52;100.00;99951.03;4992537;28;20041;-63
2022/02/21 09:17:17;;;;;;;126.22;45.17;;;;;;;13.69;100.00;99945.22;4992614;28;20124;-63
2022/02/21 09:19:44;;;;;;;34.00;19.77;;;;;;;13.03;100.00;99956.38;4992946;28;20041;-63
2022/02/21 09:22:10;;;;;;;23.55;16.65;;;;;;;13.18;100.00;99947.31;4993422;28;20488;-63
2022/02/21 09:24:36;;;;;;;31.98;22.10;;;;;;;12.94;100.00;99898.84;4994132;28;20053;-63
2022/02/21 09:27:01;;;;;;;25.23;19.38;;;;;;;13.40;100.00;99941.31;4994248;28;20408;-63
2022/02/21 09:29:27;;;;;;;71.10;29.85;;;;;;;13.43;100.00;99933.50;4994231;28;20042;-63
2022/02/21 09:31:55;;;;;;;22.15;18.00;;;;;;;12.62;100.00;99873.75;4994144;28;20124;-65
2022/02/21 09:34:20;;;;;;;27.75;18.27;;;;;;;13.19;100.00;99926.84;4994059;28;20547;-65
2022/02/21 09:36:46;;;;;;;24.10;16.60;;;;;;;13.44;100.00;99916.47;4993733;28;20044;-63
2022/02/21 09:39:11;;;;;;;22.98;16.92;;;;;;;13.98;100.00;99931.25;4993761;28;20412;-63
2022/02/21 09:41:37;;;;;;;26.27;17.15;;;;;;;13.37;100.00;99925.28;4993853;28;20026;-63
2022/02/21 09:44:03;;;;;;;26.05;16.42;;;;;;;13.68;100.00;99921.41;4993479;28;20034;-63
2022/02/21 09:46:31;;;;;;;41.50;22.98;;;;;;;13.66;100.00;99918.09;4993114;28;20030;-63
2022/02/21 09:49:00;;;;;;;29.98;19.63;;;;;;;14.26;100.00;99855.00;4993823;28;20038;-67
2022/02/21 09:51:25;;;;;;;24.17;15.93;;;;;;;14.49;100.00;99875.28;4993714;28;20034;-63
2022/02/21 09:53:50;;;;;;;27.40;16.80;;;;;;;14.77;97.60;99848.34;4993592;28;20462;-63
2022/02/21 09:56:16;;;;;;;28.05;15.13;;;;;;;14.04;100.00;99887.53;4992765;28;20030;-63
2022/02/21 09:58:42;;;;;;;27.75;16.38;;;;;;;13.41;100.00;99822.13;4993326;28;20408;-63
2022/02/21 10:01:07;;;;;;;26.27;17.10;;;;;;;13.85;100.00;99828.69;4993467;28;20028;-66
2022/02/21 10:03:36;;;;;;;21.13;15.25;;;;;;;14.11;100.00;99899.13;4993760;28;20058;-64
2022/02/21 10:06:15;;;;;;;21.52;14.13;;;;;;;13.46;100.00;99838.91;4993168;28;20088;-65
2022/02/21 10:08:53;;;;;;;24.85;15.90;;;;;;;14.33;100.00;99872.56;4992036;28;20121;-66
2022/02/21 10:11:29;;;;;;;27.63;16.70;;;;;;;14.18;100.00;99864.75;4993167;28;20117;-62
2022/02/21 10:14:18;;;;;;;20.88;14.73;;;;;;;14.45;100.00;99878.88;4991848;28;20038;-64
2022/02/21 10:16:46;;;;;;;23.98;14.65;;;;;;;14.60;100.00;99862.81;4993516;28;20037;-65
2022/02/21 10:19:20;;;;;;;22.63;14.40;;;;;;;14.83;99.08;99849.78;4992863;28;20061;-64
2022/02/21 10:21:59;;;;;;;19.02;13.75;;;;;;;14.55;100.00;99868.16;4993194;28;20026;-63
2022/02/21 10:24:26;;;;;;;21.15;13.77;;;;;;;14.49;100.00;99853.09;4993103;28;20030;-63
2022/02/21 10:26:54;;;;;;;20.88;14.70;;;;;;;14.03;100.00;99781.03;4992958;28;20038;-63
2022/02/21 10:29:20;;;;;;;18.52;13.95;;;;;;;14.75;100.00;99831.41;4992855;28;20026;-63
2022/02/21 10:31:46;;;;;;;18.60;12.65;;;;;;;14.82;100.00;99830.19;4991093;28;20088;-63
2022/02/21 10:34:11;;;;;;;18.15;12.68;;;;;;;14.97;96.68;99844.84;4992846;28;20034;-63
2022/02/21 10:36:40;;;;;;;24.23;14.75;;;;;;;14.64;98.64;99796.06;4991586;28;20066;-63
2022/02/21 10:39:10;;;;;;;21.33;15.30;;;;;;;14.55;100.00;99782.88;4991277;28;20504;-63
2022/02/21 10:41:59;;;;;;;22.13;14.65;;;;;;;14.84;99.45;99833.50;4992774;28;20030;-63
2022/02/21 10:44:31;;;;;;;14.77;10.65;;;;;;;15.62;92.03;99813.41;4991747;28;20080;-62
2022/02/21 10:47:03;;;;;;;17.90;12.93;;;;;;;15.27;91.62;99802.34;4992636;28;20056;-63
2022/02/21 10:49:29;;;;;;;16.63;12.73;;;;;;;15.95;88.92;99734.75;4992232;28;20035;-63
2022/02/21 10:51:57;;;;;;;16.35;11.85;;;;;;;16.03;87.22;99760.81;4992513;28;20393;-63
2022/02/21 10:54:37;;;;;;;16.83;12.48;;;;;;;15.55;86.91;99738.59;4992345;28;20030;-63
2022/02/21 10:57:07;;;;;;;15.43;10.50;;;;;;;16.04;82.38;99762.47;4992266;28;20076;-63
2022/02/21 10:59:32;;;;;;;14.70;10.32;;;;;;;16.48;80.24;99768.56;4992509;28;20030;-63
2022/02/21 11:02:00;;;;;;;13.32;10.15;;;;;;;16.58;76.75;99762.97;4992062;28;20050;-63
2022/02/21 11:04:27;;;;;;;18.65;12.02;;;;;;;16.37;77.64;99718.75;4992142;28;20044;-64
2022/02/21 11:06:54;;;;;;;18.67;11.27;;;;;;;15.55;86.89;99689.91;4992126;28;20033;-63